Time;durP1;ratioP1;P1;durP2;ratioP2;P2;SDS_P1;SDS_P2;PMS_P1;PMS_P2;Temp;Humidity;BMP_temperature;BMP_pressure;BME280_temperature;BME280_humidity;BME280_pressure;Samples;Min_cycle;Max_cycle;Signal;HPM_P1;HPM_P2
2022/08/27 00:01:29;;;;;;;25.10;21.67;;;18.20;99.90;;;;;;5069060;28;20032;-74
2022/08/27 00:03:55;;;;;;;33.13;26.45;;;18.20;99.90;;;;;;5069747;28;20147;-74
2022/08/27 00:06:22;;;;;;;33.88;27.20;;;18.20;99.90;;;;;;5069401;28;20074;-71
2022/08/27 00:08:49;;;;;;;37.95;28.17;;;18.20;99.90;;;;;;5069693;28;20021;-75
2022/08/27 00:11:16;;;;;;;38.67;28.55;;;18.30;99.90;;;;;;5069622;28;20025;-74
2022/08/27 00:13:43;;;;;;;39.97;29.48;;;18.30;99.90;;;;;;5069128;28;20499;-74
2022/08/27 00:16:10;;;;;;;34.25;26.75;;;18.30;99.90;;;;;;5055447;28;20029;-75
2022/08/27 00:18:37;;;;;;;37.15;29.17;;;18.30;99.90;;;;;;5054557;28;20100;-75
2022/08/27 00:21:03;;;;;;;31.52;27.15;;;18.30;99.90;;;;;;5055155;28;20037;-76
2022/08/27 00:23:30;;;;;;;35.72;28.42;;;18.30;99.90;;;;;;5054542;28;20451;-75
2022/08/27 00:25:56;;;;;;;34.63;28.63;;;18.30;99.90;;;;;;5055409;28;20033;-76
2022/08/27 00:28:22;;;;;;;38.72;32.40;;;18.30;99.90;;;;;;5054356;28;20473;-70
2022/08/27 00:30:48;;;;;;;39.00;31.95;;;18.30;99.90;;;;;;5062781;28;20024;-74
2022/08/27 00:33:13;;;;;;;46.47;33.88;;;18.30;99.90;;;;;;5075487;28;20033;-74
2022/08/27 00:35:39;;;;;;;35.30;29.30;;;18.40;99.90;;;;;;5073825;28;20029;-74
2022/08/27 00:38:06;;;;;;;37.38;29.90;;;18.40;99.90;;;;;;5074624;28;20507;-75
2022/08/27 00:40:32;;;;;;;37.85;30.27;;;18.40;99.90;;;;;;5073829;28;20024;-76
2022/08/27 00:43:02;;;;;;;37.75;29.33;;;18.40;99.90;;;;;;5074869;28;20090;-75
2022/08/27 00:45:31;;;;;;;33.17;29.23;;;18.40;99.90;;;;;;5074095;28;20027;-74
2022/08/27 00:47:59;;;;;;;38.75;28.90;;;18.50;99.90;;;;;;5071222;28;20444;-74
2022/08/27 00:50:37;;;;;;;39.92;30.67;;;18.50;99.90;;;;;;5083649;28;20032;-73
2022/08/27 00:53:25;;;;;;;33.05;27.25;;;18.50;99.90;;;;;;5095088;28;20020;-74
2022/08/27 00:56:14;;;;;;;35.72;29.17;;;18.50;99.90;;;;;;5095061;28;20456;-74
2022/08/27 00:58:46;;;;;;;36.15;29.75;;;18.50;99.90;;;;;;5094141;28;20144;-75
2022/08/27 01:01:16;;;;;;;33.20;27.83;;;18.60;99.90;;;;;;5094903;28;20031;-75
2022/08/27 01:03:45;;;;;;;39.15;32.33;;;18.50;99.90;;;;;;5077490;28;20089;-74
2022/08/27 01:06:13;;;;;;;44.35;35.92;;;18.40;99.90;;;;;;5074267;28;20381;-74
2022/08/27 01:08:44;;;;;;;41.70;32.17;;;18.40;99.90;;;;;;5073535;28;20046;-73
2022/08/27 01:11:10;;;;;;;38.38;32.75;;;18.30;99.90;;;;;;5074660;28;20029;-73
2022/08/27 01:13:37;;;;;;;40.67;32.10;;;18.30;99.90;;;;;;5073303;28;20385;-73
2022/08/27 01:16:04;;;;;;;51.63;38.58;;;18.20;99.90;;;;;;5074435;28;20021;-73
2022/08/27 01:18:33;;;;;;;45.78;36.30;;;18.20;99.90;;;;;;5055448;28;20082;-73
2022/08/27 01:21:09;;;;;;;41.70;34.60;;;18.20;99.90;;;;;;5071587;28;20107;-73
2022/08/27 01:23:42;;;;;;;43.95;35.05;;;18.10;99.90;;;;;;5070107;28;20062;-73
2022/08/27 01:26:12;;;;;;;45.38;36.88;;;18.10;99.90;;;;;;5074154;28;20027;-74
2022/08/27 01:28:38;;;;;;;44.13;37.08;;;18.10;99.90;;;;;;5073224;28;20108;-73
2022/08/27 01:31:09;;;;;;;40.40;32.60;;;18.10;99.90;;;;;;5074094;28;20111;-73
2022/08/27 01:33:35;;;;;;;42.22;35.90;;;18.00;99.90;;;;;;5073044;28;20029;-73
2022/08/27 01:36:02;;;;;;;55.05;40.05;;;18.00;99.90;;;;;;5073836;28;20408;-73
2022/08/27 01:38:28;;;;;;;40.47;34.45;;;18.00;99.90;;;;;;5071094;28;20098;-72
2022/08/27 01:40:55;;;;;;;50.45;38.22;;;18.10;99.90;;;;;;5070853;28;20037;-73
2022/08/27 01:43:20;;;;;;;43.50;35.00;;;18.00;99.90;;;;;;5073356;28;20440;-73
2022/08/27 01:45:49;;;;;;;41.00;32.25;;;18.00;99.90;;;;;;5072973;28;20021;-73
2022/08/27 01:48:18;;;;;;;37.55;31.38;;;18.00;99.90;;;;;;5073497;28;20100;-73
2022/08/27 01:50:44;;;;;;;42.53;33.70;;;18.00;99.90;;;;;;5060513;28;20033;-74
2022/08/27 01:53:15;;;;;;;49.17;38.55;;;18.00;99.90;;;;;;5053706;28;20104;-74
2022/08/27 01:55:42;;;;;;;50.60;38.25;;;18.00;99.90;;;;;;5052775;28;20028;-74
2022/08/27 01:58:08;;;;;;;42.45;35.58;;;18.00;99.90;;;;;;5062328;28;20115;-76
2022/08/27 02:00:37;;;;;;;45.92;36.67;;;18.10;99.90;;;;;;5072805;28;20112;-76
2022/08/27 02:03:04;;;;;;;43.40;35.03;;;18.00;99.90;;;;;;5073509;28;20033;-75
2022/08/27 02:05:30;;;;;;;45.58;36.17;;;18.00;99.90;;;;;;5072448;28;20032;-76
2022/08/27 02:07:57;;;;;;;40.50;33.85;;;18.00;99.90;;;;;;5072999;28;20024;-74
2022/08/27 02:10:30;;;;;;;44.65;35.95;;;18.00;99.90;;;;;;5073257;28;20378;-75
2022/08/27 02:12:56;;;;;;;51.55;39.78;;;18.00;99.90;;;;;;5073003;28;20083;-75
2022/08/27 02:15:23;;;;;;;48.60;37.88;;;18.00;99.90;;;;;;5067368;28;20040;-76
2022/08/27 02:17:48;;;;;;;52.35;40.22;;;18.10;99.90;;;;;;5072269;28;20156;-76
2022/08/27 02:20:15;;;;;;;46.78;34.92;;;18.00;99.90;;;;;;5073251;28;20523;-76
2022/08/27 02:22:42;;;;;;;46.47;36.33;;;18.00;99.90;;;;;;5072099;28;20481;-75
2022/08/27 02:25:12;;;;;;;43.03;33.40;;;18.00;99.90;;;;;;5072897;28;20485;-75
2022/08/27 02:27:38;;;;;;;;;;;18.00;99.90;;;;;;5072392;28;20039;-73
2022/08/27 02:30:05;;;;;;;46.15;34.88;;;18.00;99.90;;;;;;5072606;28;19908;-75
2022/08/27 02:32:31;;;;;;;42.90;33.45;;;18.10;99.90;;;;;;5068168;28;20033;-73
2022/08/27 02:34:56;;;;;;;49.78;37.50;;;18.10;99.90;;;;;;5072492;28;20036;-74
2022/08/27 02:37:22;;;;;;;47.70;36.47;;;18.10;99.90;;;;;;5072189;28;20389;-73
2022/08/27 02:39:48;;;;;;;46.65;35.70;;;18.10;99.90;;;;;;5071479;28;20114;-74
2022/08/27 02:42:14;;;;;;;46.03;35.33;;;18.20;99.90;;;;;;5072453;28;20074;-73
2022/08/27 02:44:39;;;;;;;47.72;35.72;;;18.20;99.90;;;;;;5071654;28;20024;-74
2022/08/27 02:47:05;;;;;;;50.10;37.25;;;18.20;99.90;;;;;;5070689;28;20020;-74
2022/08/27 02:49:32;;;;;;;45.08;35.75;;;18.20;99.90;;;;;;5067918;28;20032;-73
2022/08/27 02:51:58;;;;;;;47.40;37.65;;;18.20;99.90;;;;;;5072258;28;20477;-75
2022/08/27 02:54:25;;;;;;;56.95;44.03;;;18.20;99.90;;;;;;5072029;28;20048;-75
2022/08/27 02:56:51;;;;;;;59.58;44.42;;;18.30;99.90;;;;;;5071527;28;20028;-75
2022/08/27 02:59:18;;;;;;;57.38;43.30;;;18.30;99.90;;;;;;5072231;28;20047;-75
2022/08/27 03:01:44;;;;;;;53.65;39.92;;;18.30;99.90;;;;;;5071423;28;20488;-74
2022/08/27 03:04:10;;;;;;;54.13;39.80;;;18.30;99.90;;;;;;5068364;28;20029;-75
2022/08/27 03:06:36;;;;;;;54.08;39.92;;;18.20;99.90;;;;;;5071364;28;20024;-74
2022/08/27 03:09:01;;;;;;;50.40;38.10;;;18.20;99.90;;;;;;5072381;28;20373;-74
2022/08/27 03:11:27;;;;;;;43.17;33.45;;;18.30;99.90;;;;;;5071747;28;20020;-75
2022/08/27 03:13:52;;;;;;;45.60;35.15;;;18.20;99.90;;;;;;5071293;28;20058;-75
2022/08/27 03:16:18;;;;;;;45.58;34.90;;;18.20;99.90;;;;;;5072079;28;20031;-75
2022/08/27 03:18:44;;;;;;;46.80;34.83;;;18.20;99.90;;;;;;5071327;28;20033;-74
2022/08/27 03:21:17;;;;;;;48.20;37.58;;;18.20;99.90;;;;;;5068540;28;20358;-74
2022/08/27 03:23:43;;;;;;;45.92;36.20;;;18.20;99.90;;;;;;5070132;28;20029;-75
2022/08/27 03:26:10;;;;;;;41.60;33.50;;;18.20;99.90;;;;;;5071897;28;20401;-74
2022/08/27 03:28:36;;;;;;;40.47;32.55;;;18.20;99.90;;;;;;5071223;28;20021;-74
2022/08/27 03:31:05;;;;;;;39.60;31.85;;;18.20;99.90;;;;;;5072286;28;20036;-75
2022/08/27 03:33:34;;;;;;;37.40;30.25;;;18.10;99.90;;;;;;5071402;28;20488;-71
2022/08/27 03:36:00;;;;;;;36.50;29.17;;;18.10;99.90;;;;;;5071842;28;20431;-74
2022/08/27 03:38:26;;;;;;;35.67;31.30;;;18.00;99.90;;;;;;5071518;28;20052;-74
2022/08/27 03:40:52;;;;;;;39.05;32.63;;;18.00;99.90;;;;;;5065330;28;20177;-75
2022/08/27 03:43:20;;;;;;;41.10;32.33;;;18.00;99.90;;;;;;5071763;28;20111;-76
2022/08/27 03:45:47;;;;;;;37.20;29.20;;;18.00;99.90;;;;;;5070983;28;20071;-75
2022/08/27 03:48:14;;;;;;;42.58;34.53;;;18.00;99.90;;;;;;5073553;28;20490;-75
2022/08/27 03:50:42;;;;;;;39.42;31.38;;;18.00;99.90;;;;;;5074871;28;20028;-75
2022/08/27 03:53:09;;;;;;;37.80;29.95;;;18.00;99.90;;;;;;5075581;28;20381;-75
2022/08/27 03:55:35;;;;;;;39.30;31.73;;;18.00;99.90;;;;;;5072350;28;20032;-74
2022/08/27 03:58:01;;;;;;;40.70;31.92;;;18.00;99.90;;;;;;5074626;28;20162;-75
2022/08/27 04:00:27;;;;;;;42.15;31.40;;;18.00;99.90;;;;;;5075556;28;20060;-73
2022/08/27 04:02:54;;;;;;;42.63;32.05;;;18.00;99.90;;;;;;5074632;28;20066;-73
2022/08/27 04:05:21;;;;;;;40.08;31.35;;;18.00;99.90;;;;;;5075489;28;20013;-75
2022/08/27 04:07:47;;;;;;;39.95;32.30;;;18.00;99.90;;;;;;5074747;28;20035;-75
2022/08/27 04:10:15;;;;;;;38.80;30.58;;;18.00;99.90;;;;;;5075338;28;20043;-75
2022/08/27 04:12:41;;;;;;;36.65;28.33;;;18.00;99.90;;;;;;5074633;28;20028;-75
2022/08/27 04:15:08;;;;;;;34.25;27.42;;;18.00;99.90;;;;;;5070111;28;20036;-75
2022/08/27 04:17:34;;;;;;;36.35;27.77;;;18.10;99.90;;;;;;5074551;28;20074;-70
2022/08/27 04:19:59;;;;;;;34.90;27.50;;;18.00;99.90;;;;;;5074831;28;20108;-74
2022/08/27 04:22:26;;;;;;;39.03;29.67;;;18.00;99.90;;;;;;5075106;28;20031;-75
2022/08/27 04:24:52;;;;;;;36.85;29.33;;;18.00;99.90;;;;;;5074225;28;20025;-75
2022/08/27 04:27:19;;;;;;;42.55;34.38;;;18.00;99.90;;;;;;5075045;28;20039;-76
2022/08/27 04:29:45;;;;;;;45.13;35.72;;;18.00;99.90;;;;;;5071783;28;20025;-75
2022/08/27 04:32:10;;;;;;;48.55;37.25;;;18.00;99.90;;;;;;5073771;28;20039;-75
2022/08/27 04:34:36;;;;;;;49.67;39.13;;;18.00;99.90;;;;;;5074300;28;20031;-72
2022/08/27 04:37:03;;;;;;;55.60;40.50;;;18.00;99.90;;;;;;5075016;28;20025;-75
2022/08/27 04:39:29;;;;;;;55.85;42.65;;;18.00;99.90;;;;;;5075887;27;20055;-76
2022/08/27 04:41:57;;;;;;;56.05;40.38;;;18.00;99.90;;;;;;5073863;28;20039;-75
2022/08/27 04:44:24;;;;;;;55.40;41.33;;;18.00;99.90;;;;;;5074749;28;20025;-75
2022/08/27 04:46:57;;;;;;;57.25;42.65;;;18.00;99.90;;;;;;5071004;28;20027;-76
2022/08/27 04:49:24;;;;;;;56.67;41.50;;;18.00;99.90;;;;;;5074948;28;20028;-75
2022/08/27 04:51:49;;;;;;;62.00;44.10;;;18.00;99.90;;;;;;5073867;28;20448;-76
2022/08/27 04:54:15;;;;;;;54.97;42.53;;;18.00;99.90;;;;;;5074767;28;20100;-76
2022/08/27 04:56:41;;;;;;;58.35;42.75;;;18.00;99.90;;;;;;5073593;28;20025;-75
2022/08/27 04:59:08;;;;;;;51.08;39.85;;;18.00;99.90;;;;;;5073818;28;20043;-76
2022/08/27 05:01:35;;;;;;;50.83;38.78;;;18.00;99.90;;;;;;5074016;28;20033;-71
2022/08/27 05:04:01;;;;;;;54.88;41.20;;;18.00;99.90;;;;;;5069998;28;20385;-75
2022/08/27 05:06:28;;;;;;;61.53;45.75;;;18.00;99.90;;;;;;5074312;28;20024;-74
2022/08/27 05:08:54;;;;;;;64.15;45.05;;;18.10;99.90;;;;;;5073617;28;20048;-75
2022/08/27 05:11:20;;;;;;;56.90;41.53;;;18.10;99.90;;;;;;5074072;28;20066;-75
2022/08/27 05:13:47;;;;;;;45.20;36.70;;;18.10;99.90;;;;;;5073614;28;20329;-76
2022/08/27 05:16:19;;;;;;;57.42;42.30;;;18.10;99.90;;;;;;5071726;28;20086;-76
2022/08/27 05:18:46;;;;;;;56.30;42.05;;;18.10;99.90;;;;;;5067510;28;20029;-75
2022/08/27 05:21:19;;;;;;;50.25;38.47;;;18.10;99.90;;;;;;5063969;28;20066;-75
2022/08/27 05:23:45;;;;;;;58.08;43.80;;;18.20;99.90;;;;;;5064442;28;20115;-76
2022/08/27 05:26:10;;;;;;;58.17;42.95;;;18.20;99.90;;;;;;5067342;28;20020;-76
2022/08/27 05:28:36;;;;;;;56.03;39.60;;;18.20;99.90;;;;;;5065379;28;20025;-72
2022/08/27 05:31:05;;;;;;;59.42;44.65;;;18.20;99.90;;;;;;5065676;28;20028;-76
2022/08/27 05:33:31;;;;;;;48.75;38.13;;;18.20;99.90;;;;;;5067542;28;20420;-76
2022/08/27 05:35:58;;;;;;;57.40;42.95;;;18.20;99.90;;;;;;5067108;28;20207;-75
2022/08/27 05:38:26;;;;;;;50.60;37.67;;;18.30;99.90;;;;;;5065411;28;20059;-76
2022/08/27 05:41:08;;;;;;;58.25;43.10;;;18.30;99.90;;;;;;5071294;28;20035;-76
2022/08/27 05:43:35;;;;;;;58.47;42.67;;;18.30;99.90;;;;;;5069655;28;20044;-76
2022/08/27 05:46:06;;;;;;;51.30;38.17;;;18.30;99.90;;;;;;5071704;28;20039;-76
2022/08/27 05:48:33;;;;;;;57.63;42.42;;;18.40;99.90;;;;;;5072011;28;20069;-75
2022/08/27 05:51:08;;;;;;;58.45;42.20;;;18.40;99.90;;;;;;5071263;28;20148;-76
2022/08/27 05:53:34;;;;;;;54.80;41.03;;;18.50;99.90;;;;;;5068812;28;20533;-74
2022/08/27 05:56:00;;;;;;;53.30;39.42;;;18.50;99.90;;;;;;5069210;28;20099;-75
2022/08/27 06:01:10;;;;;;;56.45;41.42;;;18.60;99.90;;;;;;5071353;28;20032;-76
2022/08/27 06:03:37;;;;;;;52.20;40.45;;;18.60;99.90;;;;;;5072092;28;20521;-71
2022/08/27 06:06:06;;;;;;;59.10;42.33;;;18.70;99.90;;;;;;5071730;28;20021;-77
2022/08/27 06:08:32;;;;;;;49.53;39.33;;;18.70;99.90;;;;;;5071719;28;20115;-76
2022/08/27 06:11:01;;;;;;;45.95;35.63;;;18.70;99.90;;;;;;5069070;28;20100;-75
2022/08/27 06:13:28;;;;;;;52.58;40.40;;;18.70;99.90;;;;;;5071014;28;20025;-75
2022/08/27 06:16:08;;;;;;;46.95;36.28;;;18.80;99.90;;;;;;5068435;28;20028;-75
2022/08/27 06:18:35;;;;;;;51.10;39.15;;;18.80;99.90;;;;;;5068938;28;20025;-76
2022/08/27 06:21:01;;;;;;;56.22;41.03;;;18.80;99.90;;;;;;5071072;28;20064;-77
2022/08/27 06:23:27;;;;;;;48.97;38.47;;;18.90;99.90;;;;;;5071728;28;20398;-71
2022/08/27 06:25:53;;;;;;;47.45;38.38;;;18.90;99.90;;;;;;5045659;28;20029;-76
2022/08/27 06:28:20;;;;;;;57.22;41.38;;;18.80;99.90;;;;;;5070888;28;20016;-75
2022/08/27 06:30:46;;;;;;;49.00;37.08;;;18.80;99.90;;;;;;5068784;28;20704;-73
2022/08/27 06:33:12;;;;;;;50.22;38.28;;;18.80;99.90;;;;;;5070001;28;20025;-73
2022/08/27 06:35:37;;;;;;;48.67;38.63;;;18.90;99.90;;;;;;5069736;28;20543;-74
2022/08/27 06:38:03;;;;;;;54.65;39.65;;;18.90;99.90;;;;;;5069376;28;20045;-75
2022/08/27 06:40:29;;;;;;;48.10;36.83;;;18.90;99.90;;;;;;5066876;28;20040;-78
2022/08/27 06:42:54;;;;;;;48.28;36.53;;;18.90;99.90;;;;;;5069161;28;20020;-78
2022/08/27 06:45:20;;;;;;;46.00;37.50;;;19.00;99.90;;;;;;5067720;28;20069;-77
2022/08/27 06:47:46;;;;;;;46.47;36.63;;;19.10;99.90;;;;;;5065763;28;20547;-76
2022/08/27 06:50:12;;;;;;;45.65;36.92;;;19.10;99.90;;;;;;5068840;28;20033;-84
2022/08/27 06:52:38;;;;;;;50.67;38.42;;;19.20;99.90;;;;;;5068582;28;20056;-78
2022/08/27 06:55:04;;;;;;;43.15;35.58;;;19.20;99.90;;;;;;5069501;28;20052;-82
2022/08/27 06:57:30;;;;;;;40.40;32.25;;;19.20;99.90;;;;;;5069024;28;20074;-83
2022/08/27 06:59:56;;;;;;;50.00;39.30;;;19.20;99.90;;;;;;5068817;28;20028;-77
2022/08/27 07:02:22;;;;;;;47.33;39.25;;;19.30;99.90;;;;;;5069598;28;20063;-74
2022/08/27 07:04:47;;;;;;;45.65;36.72;;;19.40;99.90;;;;;;5069163;28;20028;-74
2022/08/27 07:07:13;;;;;;;47.25;36.90;;;19.30;99.90;;;;;;5041311;28;20025;-76
2022/08/27 07:09:39;;;;;;;50.65;39.65;;;19.30;99.90;;;;;;5068766;28;20028;-73
2022/08/27 07:12:05;;;;;;;43.05;33.65;;;19.30;99.90;;;;;;5068712;28;20024;-78
2022/08/27 07:14:32;;;;;;;45.88;34.80;;;19.30;99.90;;;;;;5069120;28;20025;-77
2022/08/27 07:16:58;;;;;;;42.97;33.22;;;19.30;99.90;;;;;;5067164;28;20123;-77
2022/08/27 07:19:24;;;;;;;48.10;37.80;;;19.30;99.90;;;;;;5069245;28;20130;-76
2022/08/27 07:21:50;;;;;;;43.85;34.78;;;19.40;99.90;;;;;;5068744;28;20536;-76
2022/08/27 07:24:16;;;;;;;40.28;32.97;;;19.50;99.90;;;;;;5069834;28;20033;-76
2022/08/27 07:26:43;;;;;;;39.10;32.97;;;19.60;99.90;;;;;;5067652;28;20363;-77
2022/08/27 07:29:11;;;;;;;41.55;32.25;;;19.70;99.90;;;;;;5069366;28;20028;-76
2022/08/27 07:31:38;;;;;;;37.88;30.75;;;19.90;99.90;;;;;;5066563;28;20048;-75
2022/08/27 07:34:04;;;;;;;36.15;30.77;;;20.00;99.90;;;;;;5066533;28;20028;-76
2022/08/27 07:36:30;;;;;;;32.55;26.17;;;20.20;99.90;;;;;;5069328;28;20043;-77
2022/08/27 07:38:56;;;;;;;34.33;26.77;;;20.20;99.90;;;;;;5068568;28;20544;-78
2022/08/27 07:41:22;;;;;;;42.10;33.28;;;20.20;99.90;;;;;;5069020;28;20037;-76
2022/08/27 07:46:32;;;;;;;39.95;32.90;;;20.20;99.90;;;;;;5050728;28;20033;-78
2022/08/27 07:48:58;;;;;;;41.88;30.60;;;20.20;99.90;;;;;;5053969;28;20078;-78
2022/08/27 07:51:25;;;;;;;42.08;32.20;;;20.00;99.90;;;;;;5070766;28;20032;-77
2022/08/27 07:53:52;;;;;;;40.88;33.90;;;20.00;99.90;;;;;;5070707;28;20031;-78
2022/08/27 07:56:18;;;;;;;35.17;31.00;;;20.00;99.90;;;;;;5070220;28;20021;-71
2022/08/27 07:58:45;;;;;;;45.42;33.95;;;20.00;99.90;;;;;;5069734;28;20543;-71
2022/08/27 08:01:12;;;;;;;39.72;31.67;;;20.00;99.90;;;;;;5070686;28;20480;-72
2022/08/27 08:03:38;;;;;;;38.92;32.80;;;19.90;99.90;;;;;;5070446;28;20103;-70
2022/08/27 08:06:07;;;;;;;38.05;31.70;;;19.90;99.90;;;;;;5067532;28;20142;-71
2022/08/27 08:08:35;;;;;;;41.63;32.53;;;19.90;99.90;;;;;;5070673;28;20041;-71
2022/08/27 08:11:02;;;;;;;36.67;32.08;;;19.90;99.90;;;;;;5069286;28;20052;-72
2022/08/27 08:13:28;;;;;;;42.13;32.30;;;19.90;99.90;;;;;;5070511;28;20035;-71
2022/08/27 08:15:57;;;;;;;40.40;32.45;;;19.90;99.90;;;;;;5068326;28;20111;-70
2022/08/27 08:18:22;;;;;;;36.40;32.42;;;19.90;99.90;;;;;;5064569;28;20060;-74
2022/08/27 08:20:48;;;;;;;43.05;34.03;;;20.00;99.90;;;;;;5069273;28;20052;-72
2022/08/27 08:23:14;;;;;;;39.20;32.53;;;20.00;99.90;;;;;;5069993;28;20386;-71
2022/08/27 08:25:40;;;;;;;43.50;35.00;;;19.90;99.90;;;;;;5069280;28;20035;-69
2022/08/27 08:28:07;;;;;;;42.63;34.85;;;19.90;99.90;;;;;;5070191;28;20025;-70
2022/08/27 08:30:33;;;;;;;43.78;31.88;;;19.90;99.90;;;;;;5069979;28;20021;-70
2022/08/27 08:32:58;;;;;;;41.47;33.33;;;19.80;99.90;;;;;;5069300;28;20068;-71
2022/08/27 08:35:24;;;;;;;48.17;35.30;;;19.80;99.90;;;;;;5073618;28;20109;-71
2022/08/27 08:37:50;;;;;;;40.40;34.63;;;19.70;99.90;;;;;;5073072;27;20485;-71
2022/08/27 08:40:32;;;;;;;49.05;36.60;;;19.70;99.90;;;;;;5073137;28;20049;-72
2022/08/27 08:42:59;;;;;;;52.00;37.08;;;19.70;99.90;;;;;;5069377;28;20040;-72
2022/08/27 08:45:30;;;;;;;47.95;37.17;;;19.80;99.90;;;;;;5073865;28;20086;-73
2022/08/27 08:48:07;;;;;;;53.65;39.08;;;19.70;99.90;;;;;;5073701;28;20028;-73
2022/08/27 08:50:35;;;;;;;52.80;40.28;;;19.80;99.90;;;;;;5073612;28;20032;-74
2022/08/27 08:53:18;;;;;;;54.53;40.03;;;19.70;99.90;;;;;;5073182;28;20024;-71
2022/08/27 08:55:47;;;;;;;53.97;41.10;;;19.60;99.90;;;;;;5073191;28;20111;-71
2022/08/27 08:58:38;;;;;;;46.50;38.63;;;19.50;99.90;;;;;;5073779;28;20028;-71
2022/08/27 09:01:06;;;;;;;61.45;43.35;;;19.40;99.90;;;;;;5070385;28;20028;-71
2022/08/27 09:03:35;;;;;;;59.40;44.75;;;19.40;99.90;;;;;;5073656;28;20021;-72
2022/08/27 09:06:21;;;;;;;53.35;40.72;;;19.40;99.90;;;;;;5072786;28;20025;-71
2022/08/27 09:08:47;;;;;;;52.50;40.47;;;19.40;99.90;;;;;;5073061;28;20043;-72
2022/08/27 09:11:22;;;;;;;50.20;40.17;;;19.40;99.90;;;;;;5071495;28;20109;-73
2022/08/27 09:13:50;;;;;;;56.05;41.15;;;19.40;99.90;;;;;;5062997;28;20031;-73
2022/08/27 09:16:17;;;;;;;53.00;42.25;;;19.30;99.90;;;;;;5073296;28;20056;-74
2022/08/27 09:18:44;;;;;;;53.17;41.47;;;19.20;99.90;;;;;;5073046;28;20035;-72
2022/08/27 09:21:19;;;;;;;48.65;39.03;;;19.10;99.90;;;;;;5073284;28;20041;-77
2022/08/27 09:23:56;;;;;;;42.45;34.90;;;19.00;99.90;;;;;;5072397;28;20533;-73
2022/08/27 09:26:27;;;;;;;31.98;26.55;;;19.00;99.90;;;;;;5073162;28;20405;-73
2022/08/27 09:29:18;;;;;;;26.60;23.70;;;18.90;99.90;;;;;;5076899;28;20080;-73
2022/08/27 09:31:51;;;;;;;37.10;28.00;;;18.80;99.90;;;;;;5058362;28;20043;-72
2022/08/27 09:34:16;;;;;;;33.10;25.10;;;18.70;99.90;;;;;;5073358;28;20048;-73
2022/08/27 09:37:10;;;;;;;34.08;26.63;;;18.70;99.90;;;;;;5072560;28;20416;-71
2022/08/27 09:40:00;;;;;;;30.15;26.60;;;18.70;99.90;;;;;;5057557;28;20114;-72
2022/08/27 09:42:37;;;;;;;29.98;26.02;;;18.80;99.90;;;;;;5073237;28;20488;-72
2022/08/27 09:45:13;;;;;;;30.67;26.55;;;18.90;99.90;;;;;;5071841;28;20117;-75
2022/08/27 09:47:45;;;;;;;35.30;29.00;;;18.90;99.90;;;;;;5066803;28;20523;-71
2022/08/27 09:50:11;;;;;;;34.92;27.17;;;18.80;99.90;;;;;;5071259;28;20500;-71
2022/08/27 09:52:53;;;;;;;29.88;26.65;;;18.80;99.90;;;;;;5065351;28;20032;-71
2022/08/27 09:55:35;;;;;;;29.08;25.88;;;19.00;99.90;;;;;;5070480;28;20032;-72
2022/08/27 09:58:05;;;;;;;29.45;25.27;;;18.90;99.90;;;;;;5066427;28;20108;-72
2022/08/27 10:00:39;;;;;;;29.52;24.80;;;18.90;99.90;;;;;;5068495;28;20067;-71
2022/08/27 10:03:07;;;;;;;26.30;23.35;;;18.90;99.90;;;;;;5070523;28;20045;-72
2022/08/27 10:06:01;;;;;;;25.27;22.63;;;18.90;99.90;;;;;;5068887;28;20108;-72
2022/08/27 10:08:45;;;;;;;29.77;25.13;;;18.90;99.90;;;;;;5051015;28;20040;-74
2022/08/27 10:11:21;;;;;;;24.45;21.42;;;18.90;99.90;;;;;;5062423;28;20424;-74
2022/08/27 10:13:58;;;;;;;26.95;24.08;;;18.90;99.90;;;;;;5070915;28;20086;-73
2022/08/27 10:16:58;;;;;;;25.52;22.73;;;18.90;99.90;;;;;;5060982;28;20361;-74
2022/08/27 10:19:36;;;;;;;;;;;18.90;99.90;;;;;;5071982;28;20473;-74
2022/08/27 10:22:17;;;;;;;28.98;25.60;;;19.00;99.90;;;;;;5063815;28;20020;-74
2022/08/27 10:24:51;;;;;;;26.73;23.90;;;19.00;99.90;;;;;;5071366;28;20028;-72
2022/08/27 10:27:37;;;;;;;26.55;23.77;;;19.10;99.90;;;;;;5056282;28;20055;-73
2022/08/27 10:30:11;;;;;;;27.40;24.48;;;19.20;99.90;;;;;;5070968;28;20166;-75
2022/08/27 10:33:01;;;;;;;26.38;23.65;;;19.20;99.90;;;;;;5055869;28;20144;-76
2022/08/27 10:36:02;;;;;;;26.52;23.77;;;19.30;99.90;;;;;;5053251;28;20029;-73
2022/08/27 10:38:38;;;;;;;28.55;24.90;;;19.30;99.90;;;;;;5063539;28;20127;-72
2022/08/27 10:41:26;;;;;;;29.88;26.73;;;19.20;99.90;;;;;;5063566;28;20079;-72
2022/08/27 10:44:06;;;;;;;33.95;27.52;;;19.20;99.90;;;;;;5070741;28;20031;-72
2022/08/27 10:46:41;;;;;;;;;;;19.20;99.90;;;;;;5059327;28;20068;-71
2022/08/27 10:49:09;;;;;;;32.60;28.88;;;19.20;99.90;;;;;;5069374;28;19927;-73
2022/08/27 10:51:52;;;;;;;34.28;30.50;;;19.20;99.90;;;;;;5071584;28;20176;-73
2022/08/27 10:54:27;;;;;;;33.53;28.15;;;19.20;99.90;;;;;;5084431;28;20100;-74
2022/08/27 10:57:49;;;;;;;29.33;25.50;;;19.20;99.90;;;;;;5065847;28;20028;-75
2022/08/27 11:00:20;;;;;;;26.52;23.33;;;19.20;99.90;;;;;;5010804;28;20027;-87
2022/08/27 11:02:57;;;;;;;33.20;28.40;;;19.20;99.90;;;;;;5006849;28;20038;-77
2022/08/27 11:05:38;;;;;;;32.25;27.45;;;19.30;99.90;;;;;;5040045;28;20044;-87
2022/08/27 11:08:10;;;;;;;32.83;29.33;;;19.30;99.90;;;;;;5072219;28;20100;-87
2022/08/27 11:10:39;;;;;;;34.53;29.17;;;19.40;99.90;;;;;;5072344;28;20036;-87
2022/08/27 11:13:11;;;;;;;34.03;29.23;;;19.50;99.90;;;;;;5071118;28;20127;-87
2022/08/27 11:15:43;;;;;;;35.50;27.42;;;19.60;99.90;;;;;;5072191;28;20024;-86
2022/08/27 11:18:36;;;;;;;32.35;28.48;;;19.60;99.90;;;;;;5070951;28;20047;-87
2022/08/27 11:21:11;;;;;;;35.50;30.92;;;19.50;99.90;;;;;;5071050;28;20907;-86
2022/08/27 11:23:42;;;;;;;32.90;28.63;;;19.50;99.90;;;;;;5071558;28;20021;-88
2022/08/27 11:26:08;;;;;;;31.88;26.60;;;19.50;99.90;;;;;;5071300;28;20039;-87
2022/08/27 11:28:47;;;;;;;35.33;30.30;;;19.50;99.90;;;;;;5071366;28;20044;-87
2022/08/27 11:31:30;;;;;;;41.63;33.67;;;19.50;99.90;;;;;;5071349;28;20033;-87
2022/08/27 11:34:11;;;;;;;35.30;31.48;;;19.50;99.90;;;;;;5070320;28;20064;-87
2022/08/27 11:36:46;;;;;;;33.97;30.17;;;19.50;99.90;;;;;;5071603;28;20024;-87
2022/08/27 11:39:37;;;;;;;35.92;29.65;;;19.40;99.90;;;;;;5070886;28;20493;-87
2022/08/27 11:42:40;;;;;;;36.13;30.75;;;19.40;99.90;;;;;;5070461;28;20617;-87
2022/08/27 11:45:16;;;;;;;35.00;29.88;;;19.30;99.90;;;;;;5070605;28;20032;-87
2022/08/27 11:47:55;;;;;;;36.78;30.35;;;19.30;99.90;;;;;;5071350;28;20024;-87
2022/08/27 11:50:23;;;;;;;34.27;28.33;;;19.40;99.90;;;;;;5071611;28;20035;-87
2022/08/27 11:52:58;;;;;;;35.78;29.50;;;19.30;99.90;;;;;;5070423;28;20263;-87
2022/08/27 11:55:31;;;;;;;39.08;30.65;;;19.40;99.90;;;;;;5072073;28;20028;-87
2022/08/27 11:58:16;;;;;;;31.42;28.02;;;19.50;99.90;;;;;;5071382;28;20492;-87
2022/08/27 12:00:44;;;;;;;34.20;29.55;;;19.50;99.90;;;;;;5072276;28;20497;-87
2022/08/27 12:03:19;;;;;;;36.70;30.05;;;19.60;99.90;;;;;;5071453;28;20024;-87
2022/08/27 12:06:08;;;;;;;32.83;27.58;;;19.60;99.90;;;;;;5071514;28;20032;-76
2022/08/27 12:08:35;;;;;;;29.30;25.15;;;19.70;99.90;;;;;;5072868;28;20397;-87
2022/08/27 12:11:44;;;;;;;31.48;24.73;;;19.70;99.90;;;;;;5076239;28;20492;-80
2022/08/27 12:14:31;;;;;;;30.45;25.48;;;19.70;99.90;;;;;;5070817;28;20024;-87
2022/08/27 12:17:10;;;;;;;30.92;26.98;;;19.70;99.90;;;;;;5076416;28;20025;-87
2022/08/27 12:19:36;;;;;;;34.13;27.13;;;19.80;99.90;;;;;;5062230;28;20032;-87
2022/08/27 12:22:16;;;;;;;32.92;29.17;;;19.80;99.90;;;;;;5075731;28;20036;-87
2022/08/27 12:24:48;;;;;;;32.67;27.40;;;19.80;99.90;;;;;;5076285;28;20028;-87
2022/08/27 12:27:20;;;;;;;34.85;27.85;;;19.90;99.90;;;;;;5076132;28;20036;-87
2022/08/27 12:29:59;;;;;;;35.78;29.35;;;19.90;99.90;;;;;;5087537;28;20024;-73
2022/08/27 12:32:37;;;;;;;31.75;28.20;;;20.00;99.90;;;;;;5097211;28;20389;-80
2022/08/27 12:35:20;;;;;;;34.63;29.70;;;20.10;99.90;;;;;;5095994;28;20032;-82
2022/08/27 12:37:52;;;;;;;35.45;29.10;;;20.10;99.90;;;;;;5092711;28;20029;-74
2022/08/27 12:40:24;;;;;;;37.08;30.33;;;20.20;99.90;;;;;;5078570;28;20044;-77
2022/08/27 12:42:51;;;;;;;36.20;29.65;;;20.20;99.90;;;;;;5076550;28;20093;-74
2022/08/27 12:45:23;;;;;;;43.00;32.28;;;20.20;99.90;;;;;;5075672;28;20009;-85
2022/08/27 12:47:50;;;;;;;36.65;30.70;;;20.40;99.90;;;;;;5056828;28;20363;-76
2022/08/27 12:50:22;;;;;;;39.38;30.55;;;20.40;99.90;;;;;;5055024;28;20017;-85